sensor_id;sensor_type;location;lat;lon;timestamp;P1;durP1;ratioP1;P2;durP2;ratioP2
52180;SDS011;38158;53.338;6.514;2023-03-01T00:01:28;16.25;;;10.02;;
52180;SDS011;38158;53.338;6.514;2023-03-01T00:03:55;14.27;;;9.20;;
52180;SDS011;38158;53.338;6.514;2023-03-01T00:06:21;14.38;;;8.82;;
52180;SDS011;38158;53.338;6.514;2023-03-01T00:08:48;14.05;;;8.95;;
52180;SDS011;38158;53.338;6.514;2023-03-01T00:11:15;13.13;;;8.77;;
52180;SDS011;38158;53.338;6.514;2023-03-01T00:13:43;13.75;;;8.98;;
52180;SDS011;38158;53.338;6.514;2023-03-01T00:18:38;13.10;;;8.70;;
52180;SDS011;38158;53.338;6.514;2023-03-01T00:21:04;15.07;;;9.02;;
52180;SDS011;38158;53.338;6.514;2023-03-01T00:23:30;13.82;;;8.95;;
52180;SDS011;38158;53.338;6.514;2023-03-01T00:25:58;13.18;;;9.60;;
52180;SDS011;38158;53.338;6.514;2023-03-01T00:28:24;14.02;;;9.40;;
52180;SDS011;38158;53.338;6.514;2023-03-01T00:30:49;12.85;;;9.25;;
52180;SDS011;38158;53.338;6.514;2023-03-01T00:33:15;12.65;;;9.45;;
52180;SDS011;38158;53.338;6.514;2023-03-01T00:35:41;12.27;;;9.10;;
52180;SDS011;38158;53.338;6.514;2023-03-01T00:38:06;14.57;;;9.13;;
52180;SDS011;38158;53.338;6.514;2023-03-01T00:40:33;12.05;;;9.10;;
52180;SDS011;38158;53.338;6.514;2023-03-01T00:43:00;11.98;;;8.65;;
52180;SDS011;38158;53.338;6.514;2023-03-01T00:45:26;11.70;;;9.13;;
52180;SDS011;38158;53.338;6.514;2023-03-01T00:47:53;12.30;;;7.82;;
52180;SDS011;38158;53.338;6.514;2023-03-01T00:50:19;13.50;;;9.18;;
52180;SDS011;38158;53.338;6.514;2023-03-01T00:52:45;13.02;;;8.65;;
52180;SDS011;38158;53.338;6.514;2023-03-01T00:55:11;10.98;;;7.85;;
52180;SDS011;38158;53.338;6.514;2023-03-01T00:57:37;11.65;;;7.97;;
52180;SDS011;38158;53.338;6.514;2023-03-01T01:00:04;9.98;;;7.20;;
52180;SDS011;38158;53.338;6.514;2023-03-01T01:02:32;10.15;;;6.70;;
52180;SDS011;38158;53.338;6.514;2023-03-01T01:04:58;8.23;;;5.88;;
52180;SDS011;38158;53.338;6.514;2023-03-01T01:07:24;9.75;;;5.85;;
52180;SDS011;38158;53.338;6.514;2023-03-01T01:09:50;13.80;;;7.75;;
52180;SDS011;38158;53.338;6.514;2023-03-01T01:12:16;8.93;;;6.22;;
52180;SDS011;38158;53.338;6.514;2023-03-01T01:14:42;12.15;;;7.63;;
52180;SDS011;38158;53.338;6.514;2023-03-01T01:17:08;13.60;;;7.95;;
52180;SDS011;38158;53.338;6.514;2023-03-01T01:19:34;15.63;;;7.65;;
52180;SDS011;38158;53.338;6.514;2023-03-01T01:22:00;16.05;;;8.68;;
52180;SDS011;38158;53.338;6.514;2023-03-01T01:24:26;44.35;;;10.63;;
52180;SDS011;38158;53.338;6.514;2023-03-01T01:26:52;69.10;;;11.15;;
52180;SDS011;38158;53.338;6.514;2023-03-01T01:29:17;17.27;;;11.10;;
52180;SDS011;38158;53.338;6.514;2023-03-01T01:31:43;21.30;;;11.65;;
52180;SDS011;38158;53.338;6.514;2023-03-01T01:34:12;20.63;;;10.52;;
52180;SDS011;38158;53.338;6.514;2023-03-01T01:36:43;15.77;;;10.50;;
52180;SDS011;38158;53.338;6.514;2023-03-01T01:39:12;14.80;;;8.75;;
52180;SDS011;38158;53.338;6.514;2023-03-01T01:41:38;14.02;;;7.95;;
52180;SDS011;38158;53.338;6.514;2023-03-01T01:44:14;23.35;;;8.05;;
52180;SDS011;38158;53.338;6.514;2023-03-01T01:47:01;36.67;;;8.15;;
52180;SDS011;38158;53.338;6.514;2023-03-01T01:49:42;38.40;;;6.65;;
52180;SDS011;38158;53.338;6.514;2023-03-01T01:52:16;49.22;;;6.60;;
52180;SDS011;38158;53.338;6.514;2023-03-01T01:57:53;25.05;;;6.65;;
52180;SDS011;38158;53.338;6.514;2023-03-01T02:00:27;33.55;;;7.70;;
52180;SDS011;38158;53.338;6.514;2023-03-01T02:03:01;9.25;;;6.45;;
52180;SDS011;38158;53.338;6.514;2023-03-01T02:05:34;10.70;;;6.30;;
52180;SDS011;38158;53.338;6.514;2023-03-01T02:08:05;9.20;;;6.18;;
52180;SDS011;38158;53.338;6.514;2023-03-01T02:10:32;14.77;;;6.53;;
52180;SDS011;38158;53.338;6.514;2023-03-01T02:12:59;12.35;;;8.35;;
52180;SDS011;38158;53.338;6.514;2023-03-01T02:15:26;45.08;;;9.38;;
52180;SDS011;38158;53.338;6.514;2023-03-01T02:17:56;15.18;;;8.13;;
52180;SDS011;38158;53.338;6.514;2023-03-01T02:20:27;46.00;;;8.63;;
52180;SDS011;38158;53.338;6.514;2023-03-01T02:23:10;13.77;;;6.18;;
52180;SDS011;38158;53.338;6.514;2023-03-01T02:30:39;13.38;;;7.20;;
52180;SDS011;38158;53.338;6.514;2023-03-01T02:33:28;16.90;;;8.38;;
52180;SDS011;38158;53.338;6.514;2023-03-01T02:36:20;19.15;;;8.98;;
52180;SDS011;38158;53.338;6.514;2023-03-01T02:38:47;16.35;;;8.73;;
52180;SDS011;38158;53.338;6.514;2023-03-01T02:41:15;15.10;;;8.68;;
52180;SDS011;38158;53.338;6.514;2023-03-01T02:43:42;18.13;;;8.60;;
52180;SDS011;38158;53.338;6.514;2023-03-01T02:46:13;15.75;;;7.60;;
52180;SDS011;38158;53.338;6.514;2023-03-01T02:48:42;11.65;;;6.80;;
52180;SDS011;38158;53.338;6.514;2023-03-01T02:51:24;11.68;;;6.65;;
52180;SDS011;38158;53.338;6.514;2023-03-01T02:56:23;15.25;;;6.32;;
52180;SDS011;38158;53.338;6.514;2023-03-01T02:58:49;21.73;;;8.13;;
52180;SDS011;38158;53.338;6.514;2023-03-01T03:01:19;28.00;;;9.05;;
52180;SDS011;38158;53.338;6.514;2023-03-01T03:03:45;25.48;;;8.90;;
52180;SDS011;38158;53.338;6.514;2023-03-01T03:06:11;33.25;;;10.27;;
52180;SDS011;38158;53.338;6.514;2023-03-01T03:08:37;22.25;;;8.75;;
52180;SDS011;38158;53.338;6.514;2023-03-01T03:11:04;22.30;;;8.57;;
52180;SDS011;38158;53.338;6.514;2023-03-01T03:13:29;22.95;;;6.22;;
52180;SDS011;38158;53.338;6.514;2023-03-01T03:15:55;11.85;;;5.50;;
52180;SDS011;38158;53.338;6.514;2023-03-01T03:18:22;10.02;;;5.60;;
52180;SDS011;38158;53.338;6.514;2023-03-01T03:20:51;10.43;;;6.05;;
52180;SDS011;38158;53.338;6.514;2023-03-01T03:23:19;12.57;;;6.28;;
52180;SDS011;38158;53.338;6.514;2023-03-01T03:25:47;17.35;;;6.40;;
52180;SDS011;38158;53.338;6.514;2023-03-01T03:28:14;40.30;;;6.82;;
52180;SDS011;38158;53.338;6.514;2023-03-01T03:30:41;15.40;;;6.28;;
52180;SDS011;38158;53.338;6.514;2023-03-01T03:33:07;10.02;;;5.97;;
52180;SDS011;38158;53.338;6.514;2023-03-01T03:35:39;7.43;;;5.90;;
52180;SDS011;38158;53.338;6.514;2023-03-01T03:38:08;7.57;;;5.95;;
52180;SDS011;38158;53.338;6.514;2023-03-01T03:40:41;7.57;;;6.10;;
52180;SDS011;38158;53.338;6.514;2023-03-01T03:43:08;8.82;;;6.93;;
52180;SDS011;38158;53.338;6.514;2023-03-01T03:45:35;9.30;;;6.85;;
52180;SDS011;38158;53.338;6.514;2023-03-01T03:48:02;11.02;;;6.93;;
52180;SDS011;38158;53.338;6.514;2023-03-01T03:50:30;94.82;;;8.98;;
52180;SDS011;38158;53.338;6.514;2023-03-01T03:52:56;64.35;;;10.18;;
52180;SDS011;38158;53.338;6.514;2023-03-01T03:55:21;58.17;;;8.80;;
52180;SDS011;38158;53.338;6.514;2023-03-01T03:57:47;40.95;;;9.27;;
52180;SDS011;38158;53.338;6.514;2023-03-01T04:00:20;10.93;;;7.50;;
52180;SDS011;38158;53.338;6.514;2023-03-01T04:02:49;36.33;;;12.27;;
52180;SDS011;38158;53.338;6.514;2023-03-01T04:05:15;22.02;;;13.93;;
52180;SDS011;38158;53.338;6.514;2023-03-01T04:07:43;34.50;;;12.68;;
52180;SDS011;38158;53.338;6.514;2023-03-01T04:10:13;43.58;;;12.48;;
52180;SDS011;38158;53.338;6.514;2023-03-01T04:12:41;13.00;;;10.30;;
52180;SDS011;38158;53.338;6.514;2023-03-01T04:15:08;11.70;;;9.07;;
52180;SDS011;38158;53.338;6.514;2023-03-01T04:17:44;9.23;;;6.97;;
52180;SDS011;38158;53.338;6.514;2023-03-01T04:20:12;10.48;;;7.53;;
52180;SDS011;38158;53.338;6.514;2023-03-01T04:22:42;11.50;;;7.88;;
52180;SDS011;38158;53.338;6.514;2023-03-01T04:25:11;10.23;;;7.78;;
52180;SDS011;38158;53.338;6.514;2023-03-01T04:27:39;11.05;;;8.57;;
52180;SDS011;38158;53.338;6.514;2023-03-01T04:30:05;13.38;;;8.90;;
52180;SDS011;38158;53.338;6.514;2023-03-01T04:32:32;11.70;;;8.30;;
52180;SDS011;38158;53.338;6.514;2023-03-01T04:34:58;10.73;;;8.05;;
52180;SDS011;38158;53.338;6.514;2023-03-01T04:37:24;12.48;;;8.85;;
52180;SDS011;38158;53.338;6.514;2023-03-01T04:39:50;10.57;;;8.15;;
52180;SDS011;38158;53.338;6.514;2023-03-01T04:42:16;9.73;;;7.93;;
52180;SDS011;38158;53.338;6.514;2023-03-01T04:44:42;9.98;;;7.60;;
52180;SDS011;38158;53.338;6.514;2023-03-01T04:47:08;10.20;;;7.90;;
52180;SDS011;38158;53.338;6.514;2023-03-01T04:49:34;10.80;;;8.07;;
52180;SDS011;38158;53.338;6.514;2023-03-01T04:52:00;8.65;;;6.97;;
52180;SDS011;38158;53.338;6.514;2023-03-01T04:54:29;10.73;;;8.15;;
52180;SDS011;38158;53.338;6.514;2023-03-01T04:56:59;10.55;;;7.82;;
52180;SDS011;38158;53.338;6.514;2023-03-01T04:59:25;10.55;;;8.32;;
52180;SDS011;38158;53.338;6.514;2023-03-01T05:01:51;10.32;;;7.90;;
52180;SDS011;38158;53.338;6.514;2023-03-01T05:04:20;11.20;;;8.10;;
52180;SDS011;38158;53.338;6.514;2023-03-01T05:06:47;11.00;;;8.40;;
52180;SDS011;38158;53.338;6.514;2023-03-01T05:09:12;11.80;;;8.85;;
52180;SDS011;38158;53.338;6.514;2023-03-01T05:11:38;11.38;;;9.18;;
52180;SDS011;38158;53.338;6.514;2023-03-01T05:14:04;10.98;;;8.40;;
52180;SDS011;38158;53.338;6.514;2023-03-01T05:16:31;13.88;;;9.38;;
52180;SDS011;38158;53.338;6.514;2023-03-01T05:18:58;11.43;;;8.75;;
52180;SDS011;38158;53.338;6.514;2023-03-01T05:21:24;12.23;;;8.52;;
52180;SDS011;38158;53.338;6.514;2023-03-01T05:23:50;11.85;;;8.80;;
52180;SDS011;38158;53.338;6.514;2023-03-01T05:26:17;10.88;;;8.40;;
52180;SDS011;38158;53.338;6.514;2023-03-01T05:28:44;11.13;;;8.35;;
52180;SDS011;38158;53.338;6.514;2023-03-01T05:31:10;12.07;;;9.35;;
52180;SDS011;38158;53.338;6.514;2023-03-01T05:33:39;12.70;;;9.40;;
52180;SDS011;38158;53.338;6.514;2023-03-01T05:36:06;13.27;;;8.68;;
52180;SDS011;38158;53.338;6.514;2023-03-01T05:38:33;10.57;;;8.18;;
52180;SDS011;38158;53.338;6.514;2023-03-01T05:40:59;11.68;;;8.18;;
52180;SDS011;38158;53.338;6.514;2023-03-01T05:43:25;11.88;;;8.63;;
52180;SDS011;38158;53.338;6.514;2023-03-01T05:45:50;12.93;;;9.77;;
52180;SDS011;38158;53.338;6.514;2023-03-01T05:48:16;11.93;;;9.18;;
52180;SDS011;38158;53.338;6.514;2023-03-01T05:50:44;12.00;;;8.70;;
52180;SDS011;38158;53.338;6.514;2023-03-01T05:55:40;11.30;;;8.85;;
52180;SDS011;38158;53.338;6.514;2023-03-01T05:58:07;12.25;;;9.25;;
52180;SDS011;38158;53.338;6.514;2023-03-01T06:00:35;12.45;;;9.07;;
52180;SDS011;38158;53.338;6.514;2023-03-01T06:03:01;10.30;;;7.85;;
52180;SDS011;38158;53.338;6.514;2023-03-01T06:05:28;11.27;;;8.70;;
52180;SDS011;38158;53.338;6.514;2023-03-01T06:07:54;11.43;;;7.90;;
52180;SDS011;38158;53.338;6.514;2023-03-01T06:10:21;12.05;;;8.63;;
52180;SDS011;38158;53.338;6.514;2023-03-01T06:12:47;9.73;;;7.32;;
52180;SDS011;38158;53.338;6.514;2023-03-01T06:15:13;11.55;;;8.52;;
52180;SDS011;38158;53.338;6.514;2023-03-01T06:20:12;11.93;;;8.98;;
52180;SDS011;38158;53.338;6.514;2023-03-01T06:22:40;12.30;;;9.70;;
52180;SDS011;38158;53.338;6.514;2023-03-01T06:25:07;12.90;;;9.97;;
52180;SDS011;38158;53.338;6.514;2023-03-01T06:27:33;11.03;;;8.83;;
52180;SDS011;38158;53.338;6.514;2023-03-01T06:29:59;12.63;;;8.18;;
52180;SDS011;38158;53.338;6.514;2023-03-01T06:32:25;11.98;;;7.68;;
52180;SDS011;38158;53.338;6.514;2023-03-01T06:34:51;13.15;;;9.90;;
52180;SDS011;38158;53.338;6.514;2023-03-01T06:37:16;11.40;;;8.18;;
52180;SDS011;38158;53.338;6.514;2023-03-01T06:39:42;11.35;;;7.30;;
52180;SDS011;38158;53.338;6.514;2023-03-01T06:42:08;10.30;;;7.68;;
52180;SDS011;38158;53.338;6.514;2023-03-01T06:44:37;11.07;;;7.90;;
52180;SDS011;38158;53.338;6.514;2023-03-01T06:47:03;11.65;;;8.75;;
52180;SDS011;38158;53.338;6.514;2023-03-01T06:49:29;10.98;;;7.85;;
52180;SDS011;38158;53.338;6.514;2023-03-01T06:51:55;11.23;;;8.80;;
52180;SDS011;38158;53.338;6.514;2023-03-01T06:54:21;12.25;;;9.02;;
52180;SDS011;38158;53.338;6.514;2023-03-01T06:56:47;14.43;;;9.27;;
52180;SDS011;38158;53.338;6.514;2023-03-01T06:59:14;17.10;;;10.80;;
52180;SDS011;38158;53.338;6.514;2023-03-01T07:01:40;14.13;;;9.98;;
52180;SDS011;38158;53.338;6.514;2023-03-01T07:04:06;13.70;;;10.10;;
52180;SDS011;38158;53.338;6.514;2023-03-01T07:06:32;15.88;;;10.88;;
52180;SDS011;38158;53.338;6.514;2023-03-01T07:08:58;15.60;;;11.00;;
52180;SDS011;38158;53.338;6.514;2023-03-01T07:11:23;17.50;;;11.73;;
52180;SDS011;38158;53.338;6.514;2023-03-01T07:13:49;18.50;;;12.48;;
52180;SDS011;38158;53.338;6.514;2023-03-01T07:16:15;18.38;;;11.38;;
52180;SDS011;38158;53.338;6.514;2023-03-01T07:18:41;17.88;;;12.68;;
52180;SDS011;38158;53.338;6.514;2023-03-01T07:21:07;18.67;;;12.48;;
52180;SDS011;38158;53.338;6.514;2023-03-01T07:23:34;17.52;;;11.57;;
52180;SDS011;38158;53.338;6.514;2023-03-01T07:26:00;19.30;;;13.25;;
52180;SDS011;38158;53.338;6.514;2023-03-01T07:28:25;16.85;;;12.80;;
52180;SDS011;38158;53.338;6.514;2023-03-01T07:30:52;16.92;;;12.82;;
52180;SDS011;38158;53.338;6.514;2023-03-01T07:33:18;15.88;;;11.98;;
52180;SDS011;38158;53.338;6.514;2023-03-01T07:35:44;16.48;;;12.50;;
52180;SDS011;38158;53.338;6.514;2023-03-01T07:38:10;20.20;;;14.55;;
52180;SDS011;38158;53.338;6.514;2023-03-01T07:40:35;19.75;;;16.05;;
52180;SDS011;38158;53.338;6.514;2023-03-01T07:43:01;16.90;;;12.60;;
52180;SDS011;38158;53.338;6.514;2023-03-01T07:45:27;16.67;;;12.05;;
52180;SDS011;38158;53.338;6.514;2023-03-01T07:47:53;16.00;;;11.82;;
52180;SDS011;38158;53.338;6.514;2023-03-01T07:50:20;16.00;;;11.90;;
52180;SDS011;38158;53.338;6.514;2023-03-01T07:52:47;22.35;;;14.50;;
52180;SDS011;38158;53.338;6.514;2023-03-01T07:55:14;15.70;;;10.77;;
52180;SDS011;38158;53.338;6.514;2023-03-01T07:57:40;16.35;;;10.90;;
52180;SDS011;38158;53.338;6.514;2023-03-01T08:00:06;19.90;;;12.80;;
52180;SDS011;38158;53.338;6.514;2023-03-01T08:02:33;15.18;;;10.38;;
52180;SDS011;38158;53.338;6.514;2023-03-01T08:04:59;17.50;;;11.00;;
52180;SDS011;38158;53.338;6.514;2023-03-01T08:07:24;21.05;;;12.95;;
52180;SDS011;38158;53.338;6.514;2023-03-01T08:09:50;16.63;;;11.48;;
52180;SDS011;38158;53.338;6.514;2023-03-01T08:12:16;16.38;;;11.88;;
52180;SDS011;38158;53.338;6.514;2023-03-01T08:14:42;19.02;;;12.95;;
52180;SDS011;38158;53.338;6.514;2023-03-01T08:17:08;17.58;;;12.75;;
52180;SDS011;38158;53.338;6.514;2023-03-01T08:19:33;20.70;;;13.48;;
52180;SDS011;38158;53.338;6.514;2023-03-01T08:22:00;19.00;;;13.25;;
52180;SDS011;38158;53.338;6.514;2023-03-01T08:24:27;20.77;;;13.57;;
52180;SDS011;38158;53.338;6.514;2023-03-01T08:26:53;19.75;;;13.32;;
52180;SDS011;38158;53.338;6.514;2023-03-01T08:29:20;21.05;;;14.30;;
52180;SDS011;38158;53.338;6.514;2023-03-01T08:31:46;21.88;;;14.80;;
52180;SDS011;38158;53.338;6.514;2023-03-01T08:34:13;19.65;;;13.93;;
52180;SDS011;38158;53.338;6.514;2023-03-01T08:36:41;19.42;;;13.60;;
52180;SDS011;38158;53.338;6.514;2023-03-01T08:39:08;20.95;;;14.00;;
52180;SDS011;38158;53.338;6.514;2023-03-01T08:41:35;21.58;;;14.77;;
52180;SDS011;38158;53.338;6.514;2023-03-01T08:44:01;21.52;;;13.45;;
52180;SDS011;38158;53.338;6.514;2023-03-01T08:46:28;22.08;;;13.43;;
52180;SDS011;38158;53.338;6.514;2023-03-01T08:48:55;21.38;;;14.25;;
52180;SDS011;38158;53.338;6.514;2023-03-01T08:51:22;24.25;;;14.40;;
52180;SDS011;38158;53.338;6.514;2023-03-01T08:53:48;25.13;;;15.82;;
52180;SDS011;38158;53.338;6.514;2023-03-01T08:56:15;26.02;;;15.13;;
52180;SDS011;38158;53.338;6.514;2023-03-01T08:58:48;25.55;;;16.02;;
52180;SDS011;38158;53.338;6.514;2023-03-01T09:01:15;43.80;;;24.90;;
52180;SDS011;38158;53.338;6.514;2023-03-01T09:03:43;46.45;;;27.67;;
52180;SDS011;38158;53.338;6.514;2023-03-01T09:06:10;46.78;;;28.70;;
52180;SDS011;38158;53.338;6.514;2023-03-01T09:08:37;48.45;;;28.13;;
52180;SDS011;38158;53.338;6.514;2023-03-01T09:11:05;45.50;;;27.40;;
52180;SDS011;38158;53.338;6.514;2023-03-01T09:13:32;41.75;;;26.48;;
52180;SDS011;38158;53.338;6.514;2023-03-01T09:16:00;50.10;;;28.23;;
52180;SDS011;38158;53.338;6.514;2023-03-01T09:18:27;45.30;;;27.35;;
52180;SDS011;38158;53.338;6.514;2023-03-01T09:21:00;44.50;;;27.15;;
52180;SDS011;38158;53.338;6.514;2023-03-01T09:23:37;39.70;;;25.30;;
52180;SDS011;38158;53.338;6.514;2023-03-01T09:26:10;42.90;;;24.60;;
52180;SDS011;38158;53.338;6.514;2023-03-01T09:28:41;41.92;;;25.17;;
52180;SDS011;38158;53.338;6.514;2023-03-01T09:31:08;36.50;;;23.00;;
52180;SDS011;38158;53.338;6.514;2023-03-01T09:33:34;40.83;;;23.58;;
52180;SDS011;38158;53.338;6.514;2023-03-01T09:36:00;36.80;;;22.00;;
52180;SDS011;38158;53.338;6.514;2023-03-01T09:38:28;32.03;;;20.23;;
52180;SDS011;38158;53.338;6.514;2023-03-01T09:40:54;33.20;;;20.70;;
52180;SDS011;38158;53.338;6.514;2023-03-01T09:45:49;30.98;;;20.05;;
52180;SDS011;38158;53.338;6.514;2023-03-01T09:48:16;31.40;;;19.90;;
52180;SDS011;38158;53.338;6.514;2023-03-01T09:50:47;34.85;;;21.70;;
52180;SDS011;38158;53.338;6.514;2023-03-01T09:53:15;31.25;;;18.65;;
52180;SDS011;38158;53.338;6.514;2023-03-01T09:55:44;35.80;;;19.45;;
52180;SDS011;38158;53.338;6.514;2023-03-01T10:00:59;32.10;;;19.35;;
52180;SDS011;38158;53.338;6.514;2023-03-01T10:06:19;29.40;;;17.77;;
52180;SDS011;38158;53.338;6.514;2023-03-01T10:11:20;27.98;;;17.90;;
52180;SDS011;38158;53.338;6.514;2023-03-01T10:14:03;32.05;;;17.75;;
52180;SDS011;38158;53.338;6.514;2023-03-01T10:19:03;28.95;;;17.88;;
52180;SDS011;38158;53.338;6.514;2023-03-01T10:21:31;27.67;;;17.92;;
52180;SDS011;38158;53.338;6.514;2023-03-01T10:24:10;25.30;;;17.30;;
52180;SDS011;38158;53.338;6.514;2023-03-01T10:29:30;26.98;;;17.25;;
52180;SDS011;38158;53.338;6.514;2023-03-01T10:32:02;26.83;;;16.27;;
52180;SDS011;38158;53.338;6.514;2023-03-01T10:34:32;24.10;;;15.98;;
52180;SDS011;38158;53.338;6.514;2023-03-01T10:37:19;25.90;;;17.30;;
52180;SDS011;38158;53.338;6.514;2023-03-01T10:39:57;26.27;;;16.10;;
52180;SDS011;38158;53.338;6.514;2023-03-01T10:42:27;23.25;;;15.70;;
52180;SDS011;38158;53.338;6.514;2023-03-01T10:44:53;23.23;;;14.13;;
52180;SDS011;38158;53.338;6.514;2023-03-01T10:49:51;21.00;;;14.00;;
52180;SDS011;38158;53.338;6.514;2023-03-01T10:52:20;22.33;;;13.50;;
52180;SDS011;38158;53.338;6.514;2023-03-01T10:54:58;20.48;;;13.20;;
52180;SDS011;38158;53.338;6.514;2023-03-01T10:57:28;26.70;;;14.57;;
52180;SDS011;38158;53.338;6.514;2023-03-01T11:00:10;23.50;;;14.52;;
52180;SDS011;38158;53.338;6.514;2023-03-01T11:02:49;17.83;;;11.50;;
52180;SDS011;38158;53.338;6.514;2023-03-01T11:05:35;20.00;;;12.20;;
52180;SDS011;38158;53.338;6.514;2023-03-01T11:08:01;19.42;;;11.98;;
52180;SDS011;38158;53.338;6.514;2023-03-01T11:12:56;18.30;;;11.18;;
52180;SDS011;38158;53.338;6.514;2023-03-01T11:15:41;16.45;;;10.73;;
52180;SDS011;38158;53.338;6.514;2023-03-01T11:18:21;17.48;;;11.20;;
52180;SDS011;38158;53.338;6.514;2023-03-01T11:20:48;18.40;;;10.75;;
52180;SDS011;38158;53.338;6.514;2023-03-01T11:23:18;18.63;;;11.65;;
52180;SDS011;38158;53.338;6.514;2023-03-01T11:25:50;16.30;;;9.98;;
52180;SDS011;38158;53.338;6.514;2023-03-01T11:28:21;15.80;;;9.70;;
52180;SDS011;38158;53.338;6.514;2023-03-01T11:36:07;15.27;;;9.50;;
52180;SDS011;38158;53.338;6.514;2023-03-01T11:38:55;17.45;;;10.13;;
52180;SDS011;38158;53.338;6.514;2023-03-01T11:41:26;16.90;;;10.27;;
52180;SDS011;38158;53.338;6.514;2023-03-01T11:44:14;11.35;;;7.50;;
52180;SDS011;38158;53.338;6.514;2023-03-01T12:11:48;12.57;;;8.10;;
52180;SDS011;38158;53.338;6.514;2023-03-01T12:20:44;13.18;;;7.88;;
52180;SDS011;38158;53.338;6.514;2023-03-01T12:25:58;13.38;;;7.30;;
52180;SDS011;38158;53.338;6.514;2023-03-01T12:50:37;12.85;;;7.72;;
52180;SDS011;38158;53.338;6.514;2023-03-01T12:53:10;12.23;;;6.68;;
52180;SDS011;38158;53.338;6.514;2023-03-01T12:55:49;16.45;;;8.20;;
52180;SDS011;38158;53.338;6.514;2023-03-01T13:01:16;13.00;;;8.02;;
52180;SDS011;38158;53.338;6.514;2023-03-01T13:17:49;14.35;;;8.38;;
52180;SDS011;38158;53.338;6.514;2023-03-01T13:20:18;13.50;;;8.65;;
52180;SDS011;38158;53.338;6.514;2023-03-01T13:22:48;15.30;;;9.25;;
52180;SDS011;38158;53.338;6.514;2023-03-01T13:25:27;14.63;;;9.25;;
52180;SDS011;38158;53.338;6.514;2023-03-01T13:27:52;12.55;;;8.23;;
52180;SDS011;38158;53.338;6.514;2023-03-01T13:30:56;14.18;;;9.32;;
52180;SDS011;38158;53.338;6.514;2023-03-01T13:35:48;15.43;;;9.32;;
52180;SDS011;38158;53.338;6.514;2023-03-01T13:41:17;14.68;;;9.40;;
52180;SDS011;38158;53.338;6.514;2023-03-01T13:49:31;14.38;;;9.40;;
52180;SDS011;38158;53.338;6.514;2023-03-01T13:55:06;16.15;;;9.57;;
52180;SDS011;38158;53.338;6.514;2023-03-01T13:57:39;14.38;;;8.90;;
52180;SDS011;38158;53.338;6.514;2023-03-01T14:00:27;14.52;;;8.82;;
52180;SDS011;38158;53.338;6.514;2023-03-01T14:03:02;15.77;;;9.13;;
52180;SDS011;38158;53.338;6.514;2023-03-01T14:05:34;13.63;;;8.55;;
52180;SDS011;38158;53.338;6.514;2023-03-01T14:08:04;12.93;;;8.52;;
52180;SDS011;38158;53.338;6.514;2023-03-01T14:10:53;14.27;;;9.27;;
52180;SDS011;38158;53.338;6.514;2023-03-01T14:32:09;16.92;;;7.88;;
52180;SDS011;38158;53.338;6.514;2023-03-01T14:34:38;15.45;;;8.70;;
52180;SDS011;38158;53.338;6.514;2023-03-01T14:37:32;13.13;;;8.60;;
52180;SDS011;38158;53.338;6.514;2023-03-01T14:39:58;12.90;;;8.55;;
52180;SDS011;38158;53.338;6.514;2023-03-01T14:42:26;13.13;;;8.70;;
52180;SDS011;38158;53.338;6.514;2023-03-01T14:44:55;14.02;;;9.20;;
52180;SDS011;38158;53.338;6.514;2023-03-01T14:47:26;13.27;;;9.18;;
52180;SDS011;38158;53.338;6.514;2023-03-01T14:49:58;17.40;;;9.93;;
52180;SDS011;38158;53.338;6.514;2023-03-01T14:52:42;12.57;;;9.45;;
52180;SDS011;38158;53.338;6.514;2023-03-01T14:55:15;16.80;;;10.38;;
52180;SDS011;38158;53.338;6.514;2023-03-01T14:57:43;16.10;;;11.02;;
52180;SDS011;38158;53.338;6.514;2023-03-01T15:00:16;15.98;;;11.13;;
52180;SDS011;38158;53.338;6.514;2023-03-01T15:02:43;15.85;;;10.20;;
52180;SDS011;38158;53.338;6.514;2023-03-01T15:05:10;17.67;;;11.38;;
52180;SDS011;38158;53.338;6.514;2023-03-01T15:07:40;18.20;;;12.45;;
52180;SDS011;38158;53.338;6.514;2023-03-01T15:10:55;16.10;;;11.30;;
52180;SDS011;38158;53.338;6.514;2023-03-01T15:15:47;16.27;;;11.57;;
52180;SDS011;38158;53.338;6.514;2023-03-01T15:18:20;16.17;;;11.85;;
52180;SDS011;38158;53.338;6.514;2023-03-01T15:20:49;19.92;;;12.48;;
52180;SDS011;38158;53.338;6.514;2023-03-01T15:23:33;20.52;;;12.13;;
52180;SDS011;38158;53.338;6.514;2023-03-01T15:26:00;19.55;;;12.95;;
52180;SDS011;38158;53.338;6.514;2023-03-01T15:28:27;24.15;;;13.45;;
52180;SDS011;38158;53.338;6.514;2023-03-01T15:30:57;20.40;;;12.93;;
52180;SDS011;38158;53.338;6.514;2023-03-01T15:33:41;20.05;;;13.38;;
52180;SDS011;38158;53.338;6.514;2023-03-01T15:38:56;18.73;;;12.82;;
52180;SDS011;38158;53.338;6.514;2023-03-01T15:43:51;21.45;;;12.55;;
52180;SDS011;38158;53.338;6.514;2023-03-01T15:48:52;21.02;;;13.73;;
52180;SDS011;38158;53.338;6.514;2023-03-01T15:51:28;20.73;;;12.85;;
52180;SDS011;38158;53.338;6.514;2023-03-01T15:54:01;20.00;;;13.25;;
52180;SDS011;38158;53.338;6.514;2023-03-01T15:56:29;20.27;;;12.57;;
52180;SDS011;38158;53.338;6.514;2023-03-01T15:59:01;22.95;;;13.63;;
52180;SDS011;38158;53.338;6.514;2023-03-01T16:01:28;22.00;;;13.45;;
52180;SDS011;38158;53.338;6.514;2023-03-01T16:03:54;20.38;;;13.80;;
52180;SDS011;38158;53.338;6.514;2023-03-01T16:06:21;28.13;;;12.73;;
52180;SDS011;38158;53.338;6.514;2023-03-01T16:08:47;19.73;;;12.50;;
52180;SDS011;38158;53.338;6.514;2023-03-01T16:11:16;19.08;;;11.82;;
52180;SDS011;38158;53.338;6.514;2023-03-01T16:13:44;16.90;;;10.43;;
52180;SDS011;38158;53.338;6.514;2023-03-01T16:16:10;18.50;;;10.30;;
52180;SDS011;38158;53.338;6.514;2023-03-01T16:18:47;22.05;;;11.88;;
52180;SDS011;38158;53.338;6.514;2023-03-01T16:21:20;15.55;;;10.00;;
52180;SDS011;38158;53.338;6.514;2023-03-01T16:23:50;19.83;;;11.43;;
52180;SDS011;38158;53.338;6.514;2023-03-01T16:26:16;19.67;;;11.38;;
52180;SDS011;38158;53.338;6.514;2023-03-01T16:28:43;19.40;;;10.50;;
52180;SDS011;38158;53.338;6.514;2023-03-01T16:31:09;16.73;;;9.70;;
52180;SDS011;38158;53.338;6.514;2023-03-01T16:33:36;17.00;;;10.47;;
52180;SDS011;38158;53.338;6.514;2023-03-01T16:36:06;19.45;;;11.45;;
52180;SDS011;38158;53.338;6.514;2023-03-01T16:38:36;19.38;;;11.40;;
52180;SDS011;38158;53.338;6.514;2023-03-01T16:41:02;19.30;;;11.00;;
52180;SDS011;38158;53.338;6.514;2023-03-01T16:43:29;16.02;;;10.48;;
52180;SDS011;38158;53.338;6.514;2023-03-01T16:45:55;15.83;;;10.13;;
52180;SDS011;38158;53.338;6.514;2023-03-01T16:48:21;15.48;;;10.20;;
52180;SDS011;38158;53.338;6.514;2023-03-01T16:50:55;18.48;;;10.52;;
52180;SDS011;38158;53.338;6.514;2023-03-01T16:53:21;16.85;;;10.73;;
52180;SDS011;38158;53.338;6.514;2023-03-01T16:55:52;17.38;;;9.93;;
52180;SDS011;38158;53.338;6.514;2023-03-01T16:58:19;16.05;;;10.48;;
52180;SDS011;38158;53.338;6.514;2023-03-01T17:00:44;14.07;;;9.15;;
52180;SDS011;38158;53.338;6.514;2023-03-01T17:03:10;17.17;;;10.55;;
52180;SDS011;38158;53.338;6.514;2023-03-01T17:05:39;17.75;;;10.93;;
52180;SDS011;38158;53.338;6.514;2023-03-01T17:08:05;16.60;;;9.48;;
52180;SDS011;38158;53.338;6.514;2023-03-01T17:10:32;18.92;;;10.25;;
52180;SDS011;38158;53.338;6.514;2023-03-01T17:12:58;17.42;;;10.10;;
52180;SDS011;38158;53.338;6.514;2023-03-01T17:15:24;16.65;;;10.40;;
52180;SDS011;38158;53.338;6.514;2023-03-01T17:17:49;16.02;;;10.10;;
52180;SDS011;38158;53.338;6.514;2023-03-01T17:20:16;16.42;;;9.52;;